Time;durP1;ratioP1;P1;durP2;ratioP2;P2;SDS_P1;SDS_P2;PMS_P1;PMS_P2;Temp;Humidity;BMP_temperature;BMP_pressure;BME280_temperature;BME280_humidity;BME280_pressure;Samples;Min_cycle;Max_cycle;Signal;HPM_P1;HPM_P2
2023/07/01 00:01:05;;;;;;;6.17;5.77;;;;;;;24.26;43.66;94762.50;6151305;28;109203;-61
2023/07/01 00:04:09;;;;;;;6.33;5.83;;;;;;;24.26;44.19;94762.50;6162248;28;109088;-60
2023/07/01 00:07:12;;;;;;;6.30;5.90;;;;;;;24.25;44.41;94761.72;6160937;28;108875;-61
2023/07/01 00:10:15;;;;;;;7.60;6.90;;;;;;;24.25;43.65;94759.06;6177366;28;109004;-61
2023/07/01 00:13:19;;;;;;;6.70;6.07;;;;;;;24.24;44.03;94752.16;6164918;28;109094;-62
2023/07/01 00:16:23;;;;;;;7.60;6.80;;;;;;;24.24;44.19;94754.81;6173581;28;109383;-61
2023/07/01 00:19:27;;;;;;;7.03;6.37;;;;;;;24.24;44.12;94748.69;6169849;28;109460;-58
2023/07/01 00:22:30;;;;;;;6.80;6.20;;;;;;;24.24;44.20;94751.34;6191589;28;109298;-62
2023/07/01 00:25:33;;;;;;;6.77;6.27;;;;;;;24.22;44.13;94742.88;6184487;28;109530;-59
2023/07/01 00:28:36;;;;;;;7.00;6.40;;;;;;;24.21;43.85;94736.75;6189018;28;109067;-61
2023/07/01 00:31:40;;;;;;;6.80;6.20;;;;;;;24.18;43.94;94738.16;6176690;28;109037;-59
2023/07/01 00:34:44;;;;;;;6.70;6.20;;;;;;;24.18;44.07;94737.38;6179530;28;109469;-60
2023/07/01 00:37:47;;;;;;;6.60;6.10;;;;;;;24.18;44.15;94743.50;6189934;28;109069;-59
2023/07/01 00:40:51;;;;;;;7.60;7.00;;;;;;;24.18;44.05;94740.06;6192618;28;109157;-59
2023/07/01 00:43:54;;;;;;;7.47;6.87;;;;;;;24.18;44.04;94732.03;6192435;28;110033;-59
2023/07/01 00:46:58;;;;;;;6.57;6.07;;;;;;;24.18;44.37;94737.38;6182646;28;109576;-60
2023/07/01 00:50:02;;;;;;;7.37;6.67;;;;;;;24.18;44.22;94734.72;6192014;28;110184;-59
2023/07/01 00:53:07;;;;;;;6.73;6.23;;;;;;;24.18;44.24;94726.69;6175237;28;108933;-60
2023/07/01 00:56:10;;;;;;;7.07;6.50;;;;;;;24.17;44.21;94728.59;6168542;28;109451;-58
2023/07/01 00:59:13;;;;;;;6.73;6.23;;;;;;;24.18;44.00;94729.38;6158265;28;108758;-59
2023/07/01 01:02:26;;;;;;;6.73;6.23;;;;;;;24.17;44.21;94730.47;6179359;28;110237;-59
2023/07/01 01:05:36;;;;;;;6.50;5.90;;;;;;;24.16;44.18;94732.38;6175436;28;109131;-59
2023/07/01 01:08:49;;;;;;;6.77;6.23;;;;;;;24.16;44.32;94732.38;6171108;28;109040;-61
2023/07/01 01:11:55;;;;;;;7.27;6.57;;;;;;;24.16;44.25;94740.38;6192341;28;109082;-63
2023/07/01 01:15:00;;;;;;;6.60;6.10;;;;;;;24.16;44.18;94735.03;6197084;28;108893;-63
2023/07/01 01:18:07;;;;;;;7.60;6.90;;;;;;;24.14;43.85;94731.91;6178733;28;109105;-64
2023/07/01 01:21:12;;;;;;;6.93;6.33;;;;;;;24.14;44.18;94725.78;6170828;28;110205;-65
2023/07/01 01:24:19;;;;;;;6.63;6.03;;;;;;;24.14;44.40;94728.47;6191169;28;110314;-65
2023/07/01 01:27:26;;;;;;;7.10;6.60;;;;;;;24.10;44.47;94722.19;6178943;28;109119;-65
2023/07/01 01:30:32;;;;;;;6.50;6.00;;;;;;;24.10;44.13;94716.84;6172531;28;110182;-65
2023/07/01 01:33:35;;;;;;;7.27;6.67;;;;;;;24.11;44.30;94716.53;6163195;28;109040;-64
2023/07/01 01:36:44;;;;;;;6.80;6.27;;;;;;;24.10;44.44;94720.31;6167889;28;110117;-64
2023/07/01 01:39:53;;;;;;;7.10;6.50;;;;;;;24.10;44.40;94725.66;6185351;28;108924;-65
2023/07/01 01:43:02;;;;;;;6.97;6.40;;;;;;;24.11;44.56;94718.41;6175973;28;109187;-66
2023/07/01 01:46:08;;;;;;;8.17;7.50;;;;;;;24.11;44.35;94718.41;6194326;28;109063;-78
2023/07/01 01:49:13;;;;;;;8.53;7.80;;;;;;;24.11;44.38;94707.72;6188069;28;109097;-64
2023/07/01 01:52:18;;;;;;;8.23;7.43;;;;;;;24.10;44.54;94703.50;6165117;28;110342;-64
2023/07/01 01:55:22;;;;;;;8.53;7.93;;;;;;;24.09;44.37;94707.28;6165425;28;109734;-64
2023/07/01 01:58:26;;;;;;;7.43;6.80;;;;;;;24.11;44.77;94718.41;6182732;28;110398;-63
2023/07/01 02:01:30;;;;;;;6.93;6.43;;;;;;;24.08;44.14;94705.72;6176741;28;109041;-64
2023/07/01 02:04:33;;;;;;;7.77;7.17;;;;;;;24.07;44.33;94707.59;6180962;28;109106;-64
2023/07/01 02:07:37;;;;;;;8.80;7.60;;;;;;;24.08;44.33;94708.38;6153049;28;109423;-66
2023/07/01 02:10:40;;;;;;;7.67;7.07;;;;;;;24.06;44.58;94699.91;6166080;28;108899;-65
2023/07/01 02:13:43;;;;;;;7.30;6.70;;;;;;;24.05;44.27;94712.50;6187259;28;110040;-65
2023/07/01 02:16:48;;;;;;;6.67;6.17;;;;;;;24.06;44.48;94713.28;6172502;28;109070;-61
2023/07/01 02:19:51;;;;;;;6.90;6.40;;;;;;;24.03;44.51;94711.25;6160518;28;109176;-64
2023/07/01 02:22:54;;;;;;;7.10;6.50;;;;;;;24.05;44.30;94714.38;6162654;28;109037;-64
2023/07/01 02:25:57;;;;;;;7.07;6.47;;;;;;;24.03;44.45;94703.25;6162442;28;109095;-64
2023/07/01 02:29:00;;;;;;;7.90;7.10;;;;;;;24.02;44.36;94709.66;6176276;28;109465;-64
2023/07/01 02:32:05;;;;;;;7.50;6.90;;;;;;;24.03;44.45;94704.03;6170657;28;110022;-63
2023/07/01 02:35:09;;;;;;;7.60;6.83;;;;;;;24.02;44.60;94707.78;6176453;28;109072;-64
2023/07/01 02:38:13;;;;;;;7.33;6.83;;;;;;;24.03;44.34;94697.91;6164424;28;109230;-64
2023/07/01 02:41:16;;;;;;;7.40;6.80;;;;;;;24.01;44.61;94706.22;6164072;28;109069;-64
2023/07/01 02:44:19;;;;;;;7.50;6.90;;;;;;;24.03;44.96;94714.72;6180318;28;109476;-64
2023/07/01 02:47:24;;;;;;;8.60;6.80;;;;;;;24.04;44.35;94715.50;6203160;28;110077;-64
2023/07/01 02:50:27;;;;;;;6.73;6.23;;;;;;;24.04;44.32;94726.19;6174796;28;109053;-64
2023/07/01 02:53:30;;;;;;;6.60;6.10;;;;;;;24.02;44.18;94725.72;6164881;28;109107;-65
2023/07/01 02:56:33;;;;;;;6.70;6.10;;;;;;;24.02;44.45;94717.69;6182968;28;109093;-65
2023/07/01 02:59:37;;;;;;;7.03;6.43;;;;;;;23.99;44.19;94718.31;6174159;28;111381;-64
2023/07/01 03:02:41;;;;;;;6.33;5.60;;;;;;;23.99;44.23;94718.31;6174896;28;110624;-63
2023/07/01 03:05:45;;;;;;;6.70;6.20;;;;;;;23.99;44.08;94729.00;6163251;28;109025;-64
2023/07/01 03:08:48;;;;;;;6.57;6.10;;;;;;;23.98;44.02;94732.78;6183887;28;109027;-71
2023/07/01 03:11:52;;;;;;;7.00;6.40;;;;;;;23.97;44.03;94733.91;6177457;28;109124;-66
2023/07/01 03:14:56;;;;;;;7.67;5.80;;;;;;;23.95;44.01;94734.22;6181939;28;109086;-64
2023/07/01 03:18:02;;;;;;;6.37;5.90;;;;;;;23.97;43.93;94725.88;6162836;28;108665;-64
2023/07/01 03:21:06;;;;;;;7.40;5.70;;;;;;;23.96;43.89;94735.00;6167328;28;109518;-64
2023/07/01 03:24:09;;;;;;;6.93;6.20;;;;;;;23.96;44.02;94737.69;6186168;28;110435;-64
2023/07/01 03:27:12;;;;;;;7.07;6.47;;;;;;;23.94;44.17;94734.56;6175033;28;110069;-59
2023/07/01 03:30:17;;;;;;;7.50;6.07;;;;;;;23.94;44.10;94734.56;6178059;28;109781;-58
2023/07/01 03:33:21;;;;;;;6.40;6.00;;;;;;;23.93;43.97;94730.31;6164948;28;110226;-58
2023/07/01 03:36:24;;;;;;;7.43;6.83;;;;;;;23.92;43.64;94731.44;6166940;28;110033;-59
2023/07/01 03:39:27;;;;;;;11.80;10.90;;;;;;;23.92;44.34;94734.09;6170898;28;109321;-58
2023/07/01 03:42:30;;;;;;;11.93;10.93;;;;;;;23.93;44.45;94730.31;6181998;28;109069;-59
2023/07/01 03:45:34;;;;;;;17.67;16.13;;;;;;;23.90;44.02;94735.22;6184928;28;108825;-58
2023/07/01 03:48:38;;;;;;;10.10;9.10;;;;;;;23.88;44.22;94729.41;6167694;28;109101;-58
2023/07/01 03:51:41;;;;;;;8.07;7.37;;;;;;;23.85;44.47;94737.25;6164150;28;109076;-58
2023/07/01 03:54:45;;;;;;;9.63;7.40;;;;;;;23.85;44.30;94738.03;6165013;28;110123;-57
2023/07/01 03:57:48;;;;;;;8.63;7.93;;;;;;;23.81;44.45;94737.13;6171571;28;110218;-57
2023/07/01 04:00:51;;;;;;;7.70;6.83;;;;;;;23.79;44.18;94742.03;6167130;28;111170;-59
2023/07/01 04:03:55;;;;;;;7.80;7.10;;;;;;;23.78;44.38;94740.47;6169802;28;109069;-59
2023/07/01 04:06:59;;;;;;;7.30;6.70;;;;;;;23.78;44.18;94735.13;6170468;28;109338;-58
2023/07/01 04:10:04;;;;;;;7.53;6.87;;;;;;;23.78;44.34;94737.00;6173342;28;109062;-57
2023/07/01 04:13:07;;;;;;;7.37;6.80;;;;;;;23.77;44.65;94738.13;6160232;28;110369;-57
2023/07/01 04:16:11;;;;;;;8.00;7.33;;;;;;;23.77;44.20;94738.91;6179030;28;110081;-58
2023/07/01 04:19:15;;;;;;;7.87;7.27;;;;;;;23.80;44.21;94742.81;6184834;28;109645;-58
2023/07/01 04:22:18;;;;;;;7.43;6.83;;;;;;;23.79;44.37;94744.69;6174187;28;111064;-59
2023/07/01 04:25:21;;;;;;;7.77;6.90;;;;;;;23.79;44.26;94747.38;6161211;28;109305;-59
2023/07/01 04:28:24;;;;;;;8.80;8.10;;;;;;;23.79;44.53;94741.25;6176066;28;110100;-59
2023/07/01 04:31:28;;;;;;;7.50;6.90;;;;;;;23.78;44.95;94745.81;6184636;28;109148;-59
2023/07/01 04:34:32;;;;;;;7.57;6.80;;;;;;;23.78;44.13;94739.69;6155887;28;110020;-65
2023/07/01 04:37:35;;;;;;;8.63;7.97;;;;;;;23.81;44.41;94739.81;6161005;28;110157;-58
2023/07/01 04:40:39;;;;;;;7.87;7.17;;;;;;;23.78;44.08;94735.13;6179136;28;109040;-58
2023/07/01 04:43:42;;;;;;;7.83;7.10;;;;;;;23.80;44.62;94745.47;6161677;28;110193;-59
2023/07/01 04:46:45;;;;;;;7.23;6.53;;;;;;;23.78;44.30;94737.78;6182349;28;110065;-59
2023/07/01 04:49:52;;;;;;;7.73;7.03;;;;;;;23.78;44.43;94745.03;6160853;28;109107;-58
2023/07/01 04:52:56;;;;;;;6.60;6.10;;;;;;;23.77;44.68;94733.56;6165679;28;109830;-62
2023/07/01 04:55:59;;;;;;;6.60;6.10;;;;;;;23.78;44.46;94732.44;6163118;28;111748;-59
2023/07/01 04:59:02;;;;;;;8.07;7.37;;;;;;;23.77;44.63;94738.91;6159521;28;111193;-59
2023/07/01 05:02:05;;;;;;;6.90;6.30;;;;;;;23.80;44.32;94748.16;6179597;28;109088;-59
2023/07/01 05:05:10;;;;;;;7.10;6.40;;;;;;;23.80;44.06;94742.81;6183998;28;109202;-59
2023/07/01 05:08:13;;;;;;;8.30;6.87;;;;;;;23.79;44.35;94742.03;6169412;28;109866;-59
2023/07/01 05:11:16;;;;;;;6.60;6.20;;;;;;;23.79;44.11;94738.56;6174767;28;109064;-59
2023/07/01 05:14:19;;;;;;;7.50;6.73;;;;;;;23.80;44.19;94748.94;6168646;28;109811;-59
2023/07/01 05:17:22;;;;;;;7.00;6.50;;;;;;;23.80;44.36;94740.13;6175950;28;109032;-59
2023/07/01 05:20:27;;;;;;;7.17;6.20;;;;;;;23.80;44.08;94740.13;6169718;28;110528;-58
2023/07/01 05:23:30;;;;;;;6.90;6.20;;;;;;;23.79;44.19;94750.03;6172198;28;109146;-58
2023/07/01 05:26:34;;;;;;;6.13;5.67;;;;;;;23.80;44.09;94750.81;6164689;28;109518;-58
2023/07/01 05:29:38;;;;;;;6.67;6.17;;;;;;;23.80;44.19;94751.59;6158268;28;109049;-58
2023/07/01 05:32:41;;;;;;;6.00;5.60;;;;;;;23.82;43.82;94756.63;6178795;28;110318;-58
2023/07/01 05:35:45;;;;;;;6.50;6.10;;;;;;;23.84;44.09;94755.19;6174390;28;109218;-59
2023/07/01 05:38:48;;;;;;;7.83;6.30;;;;;;;23.86;44.22;94747.66;6167855;28;109519;-57
2023/07/01 05:41:52;;;;;;;6.60;6.00;;;;;;;23.95;44.40;94741.47;6171142;28;110017;-58
2023/07/01 05:44:56;;;;;;;6.33;5.83;;;;;;;24.01;44.29;94748.19;6192504;28;109389;-58
2023/07/01 05:47:59;;;;;;;6.50;6.00;;;;;;;24.07;44.24;94752.28;6213005;28;109356;-62
2023/07/01 05:51:03;;;;;;;6.33;5.73;;;;;;;24.09;44.03;94750.81;6192029;28;109514;-63
2023/07/01 05:54:07;;;;;;;6.63;6.03;;;;;;;24.13;43.81;94751.75;6183739;28;110176;-64
2023/07/01 05:57:09;;;;;;;6.50;5.90;;;;;;;24.18;44.00;94750.75;6167234;28;108957;-63
2023/07/01 06:00:15;;;;;;;6.30;5.80;;;;;;;24.22;43.86;94746.34;6173849;28;109356;-63
2023/07/01 06:03:19;;;;;;;9.80;5.80;;;;;;;24.25;44.71;94752.94;6167787;28;109046;-62
2023/07/01 06:06:23;;;;;;;7.90;6.17;;;;;;;24.36;44.19;94749.53;6170928;28;110839;-62
2023/07/01 06:09:26;;;;;;;6.20;5.70;;;;;;;24.43;43.89;94755.13;6187022;28;110370;-62
2023/07/01 06:12:29;;;;;;;6.60;5.90;;;;;;;24.48;44.25;94756.81;6175348;28;110054;-62
2023/07/01 06:15:33;;;;;;;6.50;6.10;;;;;;;24.54;44.13;94760.88;6155905;28;109277;-61
2023/07/01 06:18:36;;;;;;;7.60;6.77;;;;;;;24.58;44.35;94758.31;6174664;28;109390;-62
2023/07/01 06:21:40;;;;;;;9.07;7.20;;;;;;;24.63;44.61;94758.09;6174445;28;109948;-61
2023/07/01 06:24:43;;;;;;;7.90;7.20;;;;;;;24.68;44.62;94760.59;6182390;28;109037;-62
2023/07/01 06:27:47;;;;;;;8.27;6.87;;;;;;;24.72;44.91;94759.63;6176216;28;109371;-61
2023/07/01 06:30:50;;;;;;;8.30;6.50;;;;;;;24.73;44.90;94763.88;6186162;28;109146;-62
2023/07/01 06:33:53;;;;;;;10.83;7.40;;;;;;;24.75;45.00;94760.88;6186529;28;109057;-63
2023/07/01 06:36:58;;;;;;;13.23;8.20;;;;;;;24.79;44.87;94759.09;6183624;28;110008;-63
2023/07/01 06:40:01;;;;;;;9.43;8.47;;;;;;;24.81;45.00;94756.09;6170277;28;109171;-62
2023/07/01 06:43:04;;;;;;;16.53;8.93;;;;;;;24.81;45.28;94751.50;6187181;28;109801;-63
2023/07/01 06:46:07;;;;;;;10.07;8.00;;;;;;;24.85;44.93;94746.28;6198930;28;110218;-62
2023/07/01 06:49:10;;;;;;;16.50;9.00;;;;;;;24.85;44.99;94743.59;6200296;28;109237;-64
2023/07/01 06:52:15;;;;;;;24.10;8.90;;;;;;;24.87;45.31;94752.09;6167468;28;109418;-64
2023/07/01 06:55:19;;;;;;;26.37;9.80;;;;;;;24.90;45.60;94754.91;6180009;28;109414;-64
2023/07/01 06:58:22;;;;;;;22.77;9.90;;;;;;;24.88;45.41;94753.66;6184779;28;109268;-63
2023/07/01 07:01:25;;;;;;;19.57;9.27;;;;;;;24.89;45.52;94750.66;6163800;28;111058;-62
2023/07/01 07:04:28;;;;;;;16.53;8.53;;;;;;;24.81;45.54;94745.38;6194592;28;109257;-62
2023/07/01 07:07:33;;;;;;;17.40;9.30;;;;;;;24.79;45.09;94726.97;6171960;28;109061;-63
2023/07/01 07:10:37;;;;;;;12.30;7.60;;;;;;;24.88;44.89;94726.91;6162037;28;110143;-63
2023/07/01 07:13:40;;;;;;;14.40;8.47;;;;;;;24.90;44.98;94724.66;6151837;28;109038;-64
2023/07/01 07:16:46;;;;;;;13.67;8.30;;;;;;;25.01;46.17;94729.25;6200831;28;110919;-64
2023/07/01 07:19:49;;;;;;;11.10;7.60;;;;;;;25.03;46.04;94720.88;6211564;28;109381;-63
2023/07/01 07:22:54;;;;;;;12.27;7.50;;;;;;;25.08;45.34;94715.34;6211018;28;109528;-63
2023/07/01 07:25:57;;;;;;;10.80;8.00;;;;;;;25.05;45.25;94727.50;6201282;28;109108;-63
2023/07/01 07:29:00;;;;;;;13.00;8.10;;;;;;;25.02;45.50;94722.78;6209912;28;109140;-62
2023/07/01 07:32:03;;;;;;;11.03;7.43;;;;;;;25.07;45.13;94724.47;6209749;28;109293;-62
2023/07/01 07:35:07;;;;;;;12.70;8.20;;;;;;;24.99;45.45;94723.44;6202273;28;109171;-61
2023/07/01 07:38:12;;;;;;;14.33;8.17;;;;;;;25.00;45.57;94714.28;6209613;28;109083;-63
2023/07/01 07:41:15;;;;;;;8.03;7.20;;;;;;;25.13;45.28;94714.31;6210444;28;109147;-63
2023/07/01 07:44:19;;;;;;;10.90;8.13;;;;;;;25.23;45.37;94712.00;6210385;28;109066;-62
2023/07/01 07:47:22;;;;;;;14.50;8.67;;;;;;;25.23;45.54;94708.53;6174597;28;109189;-62
2023/07/01 07:50:25;;;;;;;8.93;7.60;;;;;;;25.23;45.72;94705.88;6186026;28;109446;-66
2023/07/01 07:53:29;;;;;;;10.00;9.10;;;;;;;25.25;45.55;94699.06;6185895;28;109077;-63
2023/07/01 07:56:33;;;;;;;9.63;8.70;;;;;;;25.29;45.24;94699.16;6185639;28;109235;-63
2023/07/01 07:59:36;;;;;;;9.83;8.77;;;;;;;25.29;44.97;94693.81;6175972;28;108958;-62
2023/07/01 08:02:44;;;;;;;10.37;7.70;;;;;;;25.28;44.85;94697.59;6184432;28;109564;-62
2023/07/01 08:05:49;;;;;;;9.70;8.70;;;;;;;25.40;46.41;94696.88;6186047;28;110404;-63
2023/07/01 08:08:54;;;;;;;10.67;8.70;;;;;;;25.47;45.72;94691.72;6180606;28;109408;-61
2023/07/01 08:11:59;;;;;;;9.57;8.57;;;;;;;25.46;45.73;94692.84;6173522;28;109970;-59
2023/07/01 08:15:02;;;;;;;15.53;9.83;;;;;;;25.42;45.52;94687.38;6184247;28;112757;-60
2023/07/01 08:18:05;;;;;;;11.87;10.43;;;;;;;25.46;45.95;94687.47;6191423;28;109032;-60
2023/07/01 08:21:08;;;;;;;11.40;8.70;;;;;;;25.52;45.86;94684.22;6166371;28;109453;-60
2023/07/01 08:24:13;;;;;;;11.37;8.87;;;;;;;25.53;45.87;94675.06;6171242;28;110028;-60
2023/07/01 08:27:16;;;;;;;9.97;7.90;;;;;;;25.48;45.84;94677.97;6166273;28;109065;-59
2023/07/01 08:30:21;;;;;;;9.33;8.53;;;;;;;25.58;45.49;94674.84;6183147;28;109285;-60
2023/07/01 08:33:28;;;;;;;8.87;7.67;;;;;;;25.70;45.71;94682.06;6156965;28;110445;-60
2023/07/01 08:36:31;;;;;;;9.90;7.10;;;;;;;25.64;45.46;94678.06;6179948;28;110203;-60
2023/07/01 08:39:36;;;;;;;7.70;7.00;;;;;;;25.57;44.88;94678.66;6176018;28;110566;-60
2023/07/01 08:42:44;;;;;;;8.03;7.23;;;;;;;25.53;43.47;94685.78;6170686;28;109100;-60
2023/07/01 08:45:51;;;;;;;7.00;6.33;;;;;;;25.53;44.09;94668.94;6192339;28;109154;-60
2023/07/01 08:48:56;;;;;;;7.40;6.67;;;;;;;25.59;43.72;94665.69;6214616;28;108953;-59
2023/07/01 08:52:05;;;;;;;7.57;6.87;;;;;;;25.58;43.73;94664.13;6198461;28;110946;-60
2023/07/01 08:55:11;;;;;;;7.57;6.90;;;;;;;25.69;43.89;94656.41;6159977;28;110009;-61
2023/07/01 08:58:15;;;;;;;7.57;6.80;;;;;;;25.64;43.71;94659.31;6188746;28;109293;-60
2023/07/01 09:01:19;;;;;;;8.50;6.90;;;;;;;25.69;43.04;94662.53;6188456;28;109366;-60
2023/07/01 09:04:23;;;;;;;9.90;8.90;;;;;;;25.74;43.47;94660.75;6187831;28;109082;-60
2023/07/01 09:07:26;;;;;;;7.50;6.90;;;;;;;25.71;43.21;94658.72;6179648;28;109968;-60
2023/07/01 09:10:30;;;;;;;7.60;6.70;;;;;;;25.77;44.45;94660.88;6188621;28;109377;-61
2023/07/01 09:13:33;;;;;;;8.33;7.40;;;;;;;25.82;44.61;94657.16;6188459;28;109147;-60
2023/07/01 09:16:38;;;;;;;7.57;6.97;;;;;;;25.89;44.21;94650.13;6203766;28;109072;-62
2023/07/01 09:19:50;;;;;;;7.67;6.97;;;;;;;25.82;44.81;94643.75;6206404;28;109180;-59
2023/07/01 09:23:00;;;;;;;7.30;6.60;;;;;;;25.71;44.46;94642.66;6213451;28;110156;-58
2023/07/01 09:26:15;;;;;;;8.23;7.43;;;;;;;25.71;44.82;94642.66;6213118;28;109311;-58
2023/07/01 09:29:21;;;;;;;8.00;7.23;;;;;;;25.86;45.83;94632.00;6203087;28;109210;-58
2023/07/01 09:32:29;;;;;;;8.37;7.57;;;;;;;25.79;45.26;94631.81;6212803;28;109379;-60
2023/07/01 09:35:42;;;;;;;7.70;7.00;;;;;;;25.65;45.16;94621.47;6212193;28;109137;-59
2023/07/01 09:38:52;;;;;;;8.23;7.43;;;;;;;25.62;45.14;94616.78;6212998;28;108981;-60
2023/07/01 09:42:04;;;;;;;7.73;7.13;;;;;;;25.74;45.12;94607.94;6202215;28;109145;-62
2023/07/01 09:45:10;;;;;;;9.23;8.47;;;;;;;25.62;44.62;94608.75;6206921;28;109769;-59
2023/07/01 09:48:16;;;;;;;8.53;7.83;;;;;;;25.54;45.09;94609.66;6188256;28;110153;-59
2023/07/01 09:51:19;;;;;;;9.20;8.43;;;;;;;25.44;45.22;94607.44;6181627;28;109625;-67
2023/07/01 09:54:26;;;;;;;10.23;9.43;;;;;;;25.44;45.25;94594.03;6184840;28;108956;-58
2023/07/01 09:57:32;;;;;;;10.17;9.37;;;;;;;25.54;45.59;94598.94;6188075;28;109029;-58
2023/07/01 10:00:35;;;;;;;9.53;8.83;;;;;;;25.61;45.82;94591.09;6187857;28;110117;-58
2023/07/01 10:03:38;;;;;;;10.37;9.50;;;;;;;25.69;45.62;94590.16;6176920;28;109066;-57
2023/07/01 10:06:44;;;;;;;10.63;9.67;;;;;;;25.63;45.18;94593.44;6187093;28;109848;-58
2023/07/01 10:09:51;;;;;;;9.80;9.00;;;;;;;25.61;45.55;94593.00;6187492;28;109042;-58
2023/07/01 10:13:01;;;;;;;9.37;8.67;;;;;;;25.58;45.39;94581.06;6187506;28;109001;-58
2023/07/01 10:16:07;;;;;;;8.97;8.27;;;;;;;25.59;45.77;94571.91;6189759;28;110446;-58
2023/07/01 10:19:26;;;;;;;9.67;8.97;;;;;;;25.60;45.62;94565.44;6212153;28;108694;-58
2023/07/01 10:22:31;;;;;;;9.47;8.67;;;;;;;25.47;45.76;94565.78;6212472;28;110109;-59
2023/07/01 10:25:36;;;;;;;9.30;8.60;;;;;;;25.66;45.83;94564.06;6202277;28;110020;-59
2023/07/01 10:28:41;;;;;;;7.87;7.27;;;;;;;25.68;45.32;94561.03;6211763;28;109079;-62
2023/07/01 10:32:25;;;;;;;7.60;7.07;;;;;;;25.76;45.51;94559.34;6212034;28;109201;-63
2023/07/01 10:35:28;;;;;;;8.73;7.83;;;;;;;25.79;45.42;94554.09;6211471;28;109050;-62
2023/07/01 10:38:32;;;;;;;7.83;7.17;;;;;;;25.78;45.44;94541.03;6200489;28;110724;-61
2023/07/01 10:41:52;;;;;;;7.33;6.83;;;;;;;25.61;46.02;94550.91;6211717;28;109059;-62
2023/07/01 10:45:31;;;;;;;8.20;7.60;;;;;;;25.45;46.08;94542.03;6208150;28;109353;-61
2023/07/01 10:48:34;;;;;;;10.37;9.57;;;;;;;25.38;46.22;94537.25;6175468;28;108833;-61
2023/07/01 10:52:06;;;;;;;10.30;9.60;;;;;;;25.41;45.95;94538.47;6187083;28;109357;-62
2023/07/01 10:55:34;;;;;;;9.13;8.43;;;;;;;25.51;47.15;94534.53;6186933;28;109250;-62
2023/07/01 10:58:38;;;;;;;7.77;7.00;;;;;;;25.65;46.63;94529.56;6186955;28;110113;-61
2023/07/01 11:01:44;;;;;;;8.20;7.60;;;;;;;25.59;46.04;94526.34;6176146;28;109298;-62
2023/07/01 11:05:05;;;;;;;9.13;8.30;;;;;;;25.65;47.14;94532.25;6185304;28;110311;-62
2023/07/01 11:08:09;;;;;;;8.03;7.43;;;;;;;25.67;47.11;94530.78;6186727;28;109095;-63
2023/07/01 11:11:18;;;;;;;7.50;6.90;;;;;;;25.68;46.82;94526.19;6175943;28;110043;-66
2023/07/01 11:14:21;;;;;;;8.33;7.73;;;;;;;25.70;46.83;94532.00;6186680;28;110150;-63
2023/07/01 11:17:26;;;;;;;7.83;7.13;;;;;;;25.83;46.64;94519.31;6210042;28;110033;-62
2023/07/01 11:20:48;;;;;;;7.90;7.30;;;;;;;25.75;46.90;94515.69;6210853;28;109177;-62
2023/07/01 11:23:53;;;;;;;8.20;7.60;;;;;;;25.71;47.50;94517.50;6199964;28;109488;-62
2023/07/01 11:27:01;;;;;;;7.60;7.00;;;;;;;25.56;47.43;94510.97;6184230;28;109369;-62
2023/07/01 11:30:06;;;;;;;9.03;7.73;;;;;;;25.58;47.86;94508.72;6182081;28;109094;-67
2023/07/01 11:33:13;;;;;;;21.17;9.57;;;;;;;25.59;47.49;94504.13;6191635;28;110209;-63
2023/07/01 11:36:18;;;;;;;9.50;8.60;;;;;;;25.63;47.99;94505.78;6180530;28;110366;-62
2023/07/01 11:39:21;;;;;;;12.03;10.60;;;;;;;25.74;47.94;94508.78;6195653;28;108906;-62
2023/07/01 11:42:26;;;;;;;10.47;9.00;;;;;;;25.87;48.11;94494.16;6195851;28;109044;-62
2023/07/01 11:45:30;;;;;;;9.63;8.63;;;;;;;25.91;48.21;94505.00;6180645;28;109993;-61
2023/07/01 11:48:35;;;;;;;8.70;7.90;;;;;;;25.93;47.55;94497.38;6193628;28;109419;-61
2023/07/01 11:51:38;;;;;;;10.40;9.00;;;;;;;25.95;47.94;94498.59;6162118;28;109240;-62
2023/07/01 11:54:46;;;;;;;10.97;9.93;;;;;;;25.94;47.65;94493.59;6160185;28;109011;-64
2023/07/01 11:57:50;;;;;;;12.50;11.33;;;;;;;25.87;47.36;94488.78;6149628;28;110309;-62
2023/07/01 12:00:53;;;;;;;11.27;10.17;;;;;;;25.71;47.50;94490.69;6160719;28;109337;-63
2023/07/01 12:03:57;;;;;;;12.60;11.60;;;;;;;25.83;47.50;94484.47;6160660;28;110440;-62
2023/07/01 12:07:10;;;;;;;12.13;10.90;;;;;;;25.73;47.14;94482.31;6159098;28;109228;-64
2023/07/01 12:10:21;;;;;;;11.00;10.20;;;;;;;25.74;47.37;94478.50;6179832;28;109005;-62
2023/07/01 12:13:31;;;;;;;9.80;9.00;;;;;;;25.91;47.33;94478.97;6186544;28;109320;-61
2023/07/01 12:16:43;;;;;;;10.53;9.73;;;;;;;25.97;47.40;94468.75;6194528;28;108992;-61
2023/07/01 12:19:47;;;;;;;10.33;9.27;;;;;;;26.00;47.00;94473.47;6158345;28;109700;-61
2023/07/01 12:22:51;;;;;;;13.43;12.23;;;;;;;25.98;46.89;94468.41;6162087;28;110322;-63
2023/07/01 12:25:55;;;;;;;9.53;8.83;;;;;;;25.94;46.61;94461.41;6183367;28;109065;-62
2023/07/01 12:28:58;;;;;;;10.37;9.67;;;;;;;25.84;46.98;94456.53;6180512;28;109065;-63
2023/07/01 12:32:01;;;;;;;10.10;9.10;;;;;;;25.85;46.86;94455.41;6170069;28;109261;-63
2023/07/01 12:35:07;;;;;;;10.00;9.10;;;;;;;25.92;46.73;94453.72;6209531;28;109063;-61
2023/07/01 12:38:12;;;;;;;9.43;8.60;;;;;;;26.01;46.50;94450.09;6208945;28;109055;-61
2023/07/01 12:41:15;;;;;;;10.17;9.37;;;;;;;26.05;46.57;94441.03;6180387;28;110006;-62
2023/07/01 12:44:19;;;;;;;9.47;8.77;;;;;;;26.05;46.98;94445.63;6153675;28;109226;-61
2023/07/01 12:47:23;;;;;;;9.43;8.37;;;;;;;26.03;46.65;94437.91;6177871;28;109324;-68
2023/07/01 12:50:27;;;;;;;10.60;9.80;;;;;;;25.99;46.70;94431.66;6184940;28;109051;-60
2023/07/01 12:53:30;;;;;;;11.73;10.63;;;;;;;25.91;46.77;94430.72;6175394;28;110687;-61
2023/07/01 12:56:36;;;;;;;9.87;9.17;;;;;;;25.81;46.56;94427.75;6167908;28;108665;-60
2023/07/01 12:59:39;;;;;;;11.40;10.40;;;;;;;25.97;47.01;94423.19;6164325;28;109043;-61
2023/07/01 13:02:44;;;;;;;10.90;10.00;;;;;;;26.05;46.50;94416.91;6183292;28;109078;-60
2023/07/01 13:05:48;;;;;;;10.63;8.83;;;;;;;26.03;46.67;94413.00;6158049;28;109043;-61
2023/07/01 13:08:52;;;;;;;11.07;9.83;;;;;;;26.05;46.50;94422.28;6177772;28;109514;-62
2023/07/01 13:11:55;;;;;;;9.63;8.93;;;;;;;26.04;46.25;94412.66;6184445;28;110040;-60
2023/07/01 13:14:58;;;;;;;9.77;8.80;;;;;;;26.03;46.29;94407.63;6171501;28;109062;-60
2023/07/01 13:18:05;;;;;;;9.10;8.30;;;;;;;26.03;46.60;94411.09;6198293;28;109229;-60
2023/07/01 13:21:11;;;;;;;10.50;9.67;;;;;;;26.05;46.89;94397.38;6196450;28;109068;-60
2023/07/01 13:24:15;;;;;;;10.27;9.53;;;;;;;26.03;46.69;94397.69;6184014;28;109176;-60
2023/07/01 13:27:19;;;;;;;10.23;9.53;;;;;;;26.03;46.73;94392.31;6165933;28;109938;-63
2023/07/01 13:30:39;;;;;;;10.00;9.30;;;;;;;25.98;47.02;94381.84;6187240;28;110048;-61
2023/07/01 13:33:47;;;;;;;11.50;10.60;;;;;;;26.02;47.03;94377.38;6172321;28;110048;-60
2023/07/01 13:36:54;;;;;;;11.03;10.23;;;;;;;26.05;46.95;94367.88;6163744;28;109141;-61
2023/07/01 13:39:57;;;;;;;10.33;9.50;;;;;;;26.08;47.15;94370.63;6153262;28;109192;-60
2023/07/01 13:43:00;;;;;;;10.50;9.60;;;;;;;26.08;47.26;94367.94;6163456;28;109054;-60
2023/07/01 13:46:05;;;;;;;11.17;10.30;;;;;;;26.08;46.85;94364.50;6184191;28;110185;-69
2023/07/01 13:49:09;;;;;;;10.30;9.50;;;;;;;26.03;47.03;94362.06;6163207;28;109096;-60
2023/07/01 13:52:14;;;;;;;16.73;15.40;;;;;;;25.90;46.67;94359.44;6167381;28;110852;-62
2023/07/01 13:55:18;;;;;;;16.07;14.87;;;;;;;25.99;46.72;94367.31;6187486;28;109633;-60
2023/07/01 13:58:22;;;;;;;15.40;14.10;;;;;;;26.04;47.16;94366.28;6186023;28;109032;-62
2023/07/01 14:01:25;;;;;;;13.87;12.73;;;;;;;26.02;47.47;94366.63;6179072;28;108777;-61
2023/07/01 14:04:31;;;;;;;12.87;11.77;;;;;;;26.04;47.38;94361.69;6178187;28;110319;-61
2023/07/01 14:07:37;;;;;;;12.50;11.50;;;;;;;26.10;47.50;94362.22;6187689;28;109135;-67
2023/07/01 14:10:40;;;;;;;11.90;10.90;;;;;;;26.06;47.37;94359.47;6183828;28;109373;-65
2023/07/01 14:13:43;;;;;;;13.20;12.20;;;;;;;26.07;49.20;94358.34;6179401;28;109103;-65
2023/07/01 14:16:49;;;;;;;11.07;10.17;;;;;;;25.99;47.16;94356.59;6198166;28;109036;-64